sensor_id;sensor_type;location;lat;lon;timestamp;P1;durP1;ratioP1;P2;durP2;ratioP2
72427;SDS011;60419;48.880;18.036;2022-12-07T00:00:18;16.92;;;10.85;;
72427;SDS011;60419;48.880;18.036;2022-12-07T00:03:04;16.95;;;10.40;;
72427;SDS011;60419;48.880;18.036;2022-12-07T00:05:49;16.60;;;10.68;;
72427;SDS011;60419;48.880;18.036;2022-12-07T00:08:35;15.80;;;9.93;;
72427;SDS011;60419;48.880;18.036;2022-12-07T00:11:21;16.83;;;10.00;;
72427;SDS011;60419;48.880;18.036;2022-12-07T00:14:10;15.82;;;9.52;;
72427;SDS011;60419;48.880;18.036;2022-12-07T00:16:57;15.88;;;9.45;;
72427;SDS011;60419;48.880;18.036;2022-12-07T00:19:42;16.25;;;9.90;;
72427;SDS011;60419;48.880;18.036;2022-12-07T00:22:28;16.67;;;10.02;;
72427;SDS011;60419;48.880;18.036;2022-12-07T00:25:13;16.10;;;9.77;;
72427;SDS011;60419;48.880;18.036;2022-12-07T00:27:58;15.00;;;9.60;;
72427;SDS011;60419;48.880;18.036;2022-12-07T00:30:44;15.90;;;10.15;;
72427;SDS011;60419;48.880;18.036;2022-12-07T00:33:29;15.07;;;9.95;;
72427;SDS011;60419;48.880;18.036;2022-12-07T00:36:15;16.00;;;9.90;;
72427;SDS011;60419;48.880;18.036;2022-12-07T00:39:02;19.60;;;10.68;;
72427;SDS011;60419;48.880;18.036;2022-12-07T00:41:48;16.73;;;10.65;;
72427;SDS011;60419;48.880;18.036;2022-12-07T00:44:33;14.63;;;9.88;;
72427;SDS011;60419;48.880;18.036;2022-12-07T00:47:18;17.67;;;10.82;;
72427;SDS011;60419;48.880;18.036;2022-12-07T00:50:04;16.40;;;10.73;;
72427;SDS011;60419;48.880;18.036;2022-12-07T00:52:51;18.50;;;10.32;;
72427;SDS011;60419;48.880;18.036;2022-12-07T00:55:36;17.65;;;11.07;;
72427;SDS011;60419;48.880;18.036;2022-12-07T00:58:23;16.63;;;10.30;;
72427;SDS011;60419;48.880;18.036;2022-12-07T01:01:09;18.02;;;11.05;;
72427;SDS011;60419;48.880;18.036;2022-12-07T01:03:55;16.15;;;10.32;;
72427;SDS011;60419;48.880;18.036;2022-12-07T01:06:40;16.60;;;10.60;;
72427;SDS011;60419;48.880;18.036;2022-12-07T01:09:26;17.30;;;10.20;;
72427;SDS011;60419;48.880;18.036;2022-12-07T01:12:11;17.15;;;10.95;;
72427;SDS011;60419;48.880;18.036;2022-12-07T01:14:57;17.08;;;10.80;;
72427;SDS011;60419;48.880;18.036;2022-12-07T01:17:42;16.05;;;9.93;;
72427;SDS011;60419;48.880;18.036;2022-12-07T01:20:27;16.30;;;10.52;;
72427;SDS011;60419;48.880;18.036;2022-12-07T01:23:13;15.38;;;10.40;;
72427;SDS011;60419;48.880;18.036;2022-12-07T01:25:59;18.70;;;11.15;;
72427;SDS011;60419;48.880;18.036;2022-12-07T01:28:46;17.17;;;11.05;;
72427;SDS011;60419;48.880;18.036;2022-12-07T01:31:32;17.17;;;10.75;;
72427;SDS011;60419;48.880;18.036;2022-12-07T01:34:18;18.38;;;11.60;;
72427;SDS011;60419;48.880;18.036;2022-12-07T01:37:03;18.48;;;11.40;;
72427;SDS011;60419;48.880;18.036;2022-12-07T01:39:49;15.95;;;10.23;;
72427;SDS011;60419;48.880;18.036;2022-12-07T01:42:35;20.30;;;11.10;;
72427;SDS011;60419;48.880;18.036;2022-12-07T01:45:32;16.08;;;10.43;;
72427;SDS011;60419;48.880;18.036;2022-12-07T01:48:24;18.48;;;11.13;;
72427;SDS011;60419;48.880;18.036;2022-12-07T01:51:14;17.27;;;11.05;;
72427;SDS011;60419;48.880;18.036;2022-12-07T01:54:00;19.35;;;11.55;;
72427;SDS011;60419;48.880;18.036;2022-12-07T01:56:50;20.27;;;11.30;;
72427;SDS011;60419;48.880;18.036;2022-12-07T01:59:39;18.02;;;10.77;;
72427;SDS011;60419;48.880;18.036;2022-12-07T02:02:29;17.27;;;11.30;;
72427;SDS011;60419;48.880;18.036;2022-12-07T02:05:18;19.05;;;11.07;;
72427;SDS011;60419;48.880;18.036;2022-12-07T02:08:04;17.05;;;10.90;;
72427;SDS011;60419;48.880;18.036;2022-12-07T02:10:50;19.30;;;11.02;;
72427;SDS011;60419;48.880;18.036;2022-12-07T02:13:36;17.35;;;10.65;;
72427;SDS011;60419;48.880;18.036;2022-12-07T02:25:54;16.42;;;10.45;;
72427;SDS011;60419;48.880;18.036;2022-12-07T02:32:07;17.20;;;11.18;;
72427;SDS011;60419;48.880;18.036;2022-12-07T02:44:17;18.67;;;11.43;;
72427;SDS011;60419;48.880;18.036;2022-12-07T02:47:07;19.60;;;11.95;;
72427;SDS011;60419;48.880;18.036;2022-12-07T02:49:56;17.25;;;10.90;;
72427;SDS011;60419;48.880;18.036;2022-12-07T02:52:42;19.65;;;11.95;;
72427;SDS011;60419;48.880;18.036;2022-12-07T02:55:29;19.15;;;11.57;;
72427;SDS011;60419;48.880;18.036;2022-12-07T03:04:47;17.90;;;10.43;;
72427;SDS011;60419;48.880;18.036;2022-12-07T03:10:54;17.15;;;10.68;;
72427;SDS011;60419;48.880;18.036;2022-12-07T03:16:33;16.27;;;9.85;;
72427;SDS011;60419;48.880;18.036;2022-12-07T03:19:25;18.98;;;10.77;;
72427;SDS011;60419;48.880;18.036;2022-12-07T03:22:12;17.38;;;10.65;;
72427;SDS011;60419;48.880;18.036;2022-12-07T03:25:00;15.57;;;9.50;;
72427;SDS011;60419;48.880;18.036;2022-12-07T03:27:54;15.95;;;9.60;;
72427;SDS011;60419;48.880;18.036;2022-12-07T03:37:02;18.15;;;10.68;;
72427;SDS011;60419;48.880;18.036;2022-12-07T03:42:59;16.50;;;9.75;;
72427;SDS011;60419;48.880;18.036;2022-12-07T03:46:06;15.75;;;10.15;;
72427;SDS011;60419;48.880;18.036;2022-12-07T03:49:13;16.55;;;10.13;;
72427;SDS011;60419;48.880;18.036;2022-12-07T03:52:27;17.65;;;9.85;;
72427;SDS011;60419;48.880;18.036;2022-12-07T03:55:18;16.13;;;9.55;;
72427;SDS011;60419;48.880;18.036;2022-12-07T03:58:14;17.83;;;10.30;;
72427;SDS011;60419;48.880;18.036;2022-12-07T04:01:02;17.33;;;10.82;;
72427;SDS011;60419;48.880;18.036;2022-12-07T04:03:48;17.90;;;10.45;;
72427;SDS011;60419;48.880;18.036;2022-12-07T04:06:33;17.73;;;10.73;;
72427;SDS011;60419;48.880;18.036;2022-12-07T04:09:19;19.80;;;10.90;;
72427;SDS011;60419;48.880;18.036;2022-12-07T04:12:05;17.80;;;10.70;;
72427;SDS011;60419;48.880;18.036;2022-12-07T04:14:50;17.65;;;10.88;;
72427;SDS011;60419;48.880;18.036;2022-12-07T04:17:36;16.70;;;11.18;;
72427;SDS011;60419;48.880;18.036;2022-12-07T04:20:21;17.60;;;11.00;;
72427;SDS011;60419;48.880;18.036;2022-12-07T04:23:07;16.95;;;10.48;;
72427;SDS011;60419;48.880;18.036;2022-12-07T04:25:52;18.10;;;11.07;;
72427;SDS011;60419;48.880;18.036;2022-12-07T04:28:37;17.38;;;10.55;;
72427;SDS011;60419;48.880;18.036;2022-12-07T04:31:23;16.95;;;10.80;;
72427;SDS011;60419;48.880;18.036;2022-12-07T04:34:08;17.90;;;10.48;;
72427;SDS011;60419;48.880;18.036;2022-12-07T04:36:54;17.77;;;11.10;;
72427;SDS011;60419;48.880;18.036;2022-12-07T04:39:39;15.82;;;10.48;;
72427;SDS011;60419;48.880;18.036;2022-12-07T04:42:25;19.33;;;10.57;;
72427;SDS011;60419;48.880;18.036;2022-12-07T04:45:10;19.10;;;11.45;;
72427;SDS011;60419;48.880;18.036;2022-12-07T04:47:55;16.35;;;10.18;;
72427;SDS011;60419;48.880;18.036;2022-12-07T04:50:41;17.33;;;10.68;;
72427;SDS011;60419;48.880;18.036;2022-12-07T04:53:26;14.45;;;9.20;;
72427;SDS011;60419;48.880;18.036;2022-12-07T04:56:12;16.88;;;10.70;;
72427;SDS011;60419;48.880;18.036;2022-12-07T04:58:58;15.88;;;9.45;;
72427;SDS011;60419;48.880;18.036;2022-12-07T05:01:43;15.90;;;8.98;;
72427;SDS011;60419;48.880;18.036;2022-12-07T05:04:29;14.98;;;8.77;;
72427;SDS011;60419;48.880;18.036;2022-12-07T05:07:14;15.10;;;10.00;;
72427;SDS011;60419;48.880;18.036;2022-12-07T05:09:59;15.95;;;9.45;;
72427;SDS011;60419;48.880;18.036;2022-12-07T05:12:45;13.43;;;8.43;;
72427;SDS011;60419;48.880;18.036;2022-12-07T05:15:30;12.75;;;8.73;;
72427;SDS011;60419;48.880;18.036;2022-12-07T05:18:16;12.10;;;7.60;;
72427;SDS011;60419;48.880;18.036;2022-12-07T05:21:01;12.27;;;8.10;;
72427;SDS011;60419;48.880;18.036;2022-12-07T05:23:47;12.05;;;8.07;;
72427;SDS011;60419;48.880;18.036;2022-12-07T05:26:32;11.90;;;6.93;;
72427;SDS011;60419;48.880;18.036;2022-12-07T05:29:19;11.63;;;8.18;;
72427;SDS011;60419;48.880;18.036;2022-12-07T05:32:04;12.13;;;7.60;;
72427;SDS011;60419;48.880;18.036;2022-12-07T05:34:49;12.02;;;7.13;;
72427;SDS011;60419;48.880;18.036;2022-12-07T05:37:35;10.35;;;6.80;;
72427;SDS011;60419;48.880;18.036;2022-12-07T05:40:20;10.73;;;6.20;;
72427;SDS011;60419;48.880;18.036;2022-12-07T05:43:06;9.63;;;6.03;;
72427;SDS011;60419;48.880;18.036;2022-12-07T05:45:51;8.98;;;6.70;;
72427;SDS011;60419;48.880;18.036;2022-12-07T05:48:37;8.68;;;5.65;;
72427;SDS011;60419;48.880;18.036;2022-12-07T05:51:22;9.18;;;5.57;;
72427;SDS011;60419;48.880;18.036;2022-12-07T05:54:07;7.38;;;5.38;;
72427;SDS011;60419;48.880;18.036;2022-12-07T05:56:53;9.20;;;5.70;;
72427;SDS011;60419;48.880;18.036;2022-12-07T05:59:39;9.98;;;6.25;;
72427;SDS011;60419;48.880;18.036;2022-12-07T06:02:24;8.90;;;5.72;;
72427;SDS011;60419;48.880;18.036;2022-12-07T06:05:10;9.23;;;6.40;;
72427;SDS011;60419;48.880;18.036;2022-12-07T06:07:55;11.45;;;6.82;;
72427;SDS011;60419;48.880;18.036;2022-12-07T06:10:40;9.15;;;6.15;;
72427;SDS011;60419;48.880;18.036;2022-12-07T06:13:26;8.50;;;5.63;;
72427;SDS011;60419;48.880;18.036;2022-12-07T06:16:12;8.80;;;6.18;;
72427;SDS011;60419;48.880;18.036;2022-12-07T06:19:04;9.45;;;6.07;;
72427;SDS011;60419;48.880;18.036;2022-12-07T06:21:49;8.45;;;5.78;;
72427;SDS011;60419;48.880;18.036;2022-12-07T06:24:35;9.98;;;5.90;;
72427;SDS011;60419;48.880;18.036;2022-12-07T06:27:20;9.18;;;6.00;;
72427;SDS011;60419;48.880;18.036;2022-12-07T06:30:06;8.15;;;5.90;;
72427;SDS011;60419;48.880;18.036;2022-12-07T06:32:53;10.18;;;6.28;;
72427;SDS011;60419;48.880;18.036;2022-12-07T06:35:38;9.13;;;6.07;;
72427;SDS011;60419;48.880;18.036;2022-12-07T06:38:24;8.45;;;5.70;;
72427;SDS011;60419;48.880;18.036;2022-12-07T06:41:09;8.75;;;5.85;;
72427;SDS011;60419;48.880;18.036;2022-12-07T06:43:55;12.73;;;6.90;;
72427;SDS011;60419;48.880;18.036;2022-12-07T06:46:40;10.57;;;6.65;;
72427;SDS011;60419;48.880;18.036;2022-12-07T06:49:25;9.40;;;6.13;;
72427;SDS011;60419;48.880;18.036;2022-12-07T06:52:11;9.32;;;5.45;;
72427;SDS011;60419;48.880;18.036;2022-12-07T06:54:56;10.43;;;6.18;;
72427;SDS011;60419;48.880;18.036;2022-12-07T06:57:42;8.77;;;5.63;;
72427;SDS011;60419;48.880;18.036;2022-12-07T07:00:27;9.63;;;5.82;;
72427;SDS011;60419;48.880;18.036;2022-12-07T07:03:12;9.38;;;5.60;;
72427;SDS011;60419;48.880;18.036;2022-12-07T07:05:58;8.45;;;5.15;;
72427;SDS011;60419;48.880;18.036;2022-12-07T07:08:43;10.05;;;6.00;;
72427;SDS011;60419;48.880;18.036;2022-12-07T07:11:28;9.10;;;5.72;;
72427;SDS011;60419;48.880;18.036;2022-12-07T07:14:14;7.28;;;5.18;;
72427;SDS011;60419;48.880;18.036;2022-12-07T07:17:03;9.70;;;5.18;;
72427;SDS011;60419;48.880;18.036;2022-12-07T07:19:49;7.78;;;5.05;;
72427;SDS011;60419;48.880;18.036;2022-12-07T07:22:34;8.18;;;5.10;;
72427;SDS011;60419;48.880;18.036;2022-12-07T07:25:20;6.75;;;4.35;;
72427;SDS011;60419;48.880;18.036;2022-12-07T07:28:05;7.05;;;4.45;;
72427;SDS011;60419;48.880;18.036;2022-12-07T07:30:50;6.22;;;4.13;;
72427;SDS011;60419;48.880;18.036;2022-12-07T07:33:36;5.93;;;3.85;;
72427;SDS011;60419;48.880;18.036;2022-12-07T07:36:21;5.65;;;4.00;;
72427;SDS011;60419;48.880;18.036;2022-12-07T07:39:06;5.88;;;4.50;;
72427;SDS011;60419;48.880;18.036;2022-12-07T07:41:52;6.70;;;4.32;;
72427;SDS011;60419;48.880;18.036;2022-12-07T07:44:37;6.25;;;4.10;;
72427;SDS011;60419;48.880;18.036;2022-12-07T07:47:23;6.53;;;4.47;;
72427;SDS011;60419;48.880;18.036;2022-12-07T07:50:08;7.25;;;5.05;;
72427;SDS011;60419;48.880;18.036;2022-12-07T07:52:54;6.60;;;4.53;;
72427;SDS011;60419;48.880;18.036;2022-12-07T07:55:41;6.70;;;4.78;;
72427;SDS011;60419;48.880;18.036;2022-12-07T07:58:26;7.30;;;4.25;;
72427;SDS011;60419;48.880;18.036;2022-12-07T08:01:12;6.75;;;4.53;;
72427;SDS011;60419;48.880;18.036;2022-12-07T08:03:58;7.93;;;4.68;;
72427;SDS011;60419;48.880;18.036;2022-12-07T08:06:43;6.38;;;3.95;;
72427;SDS011;60419;48.880;18.036;2022-12-07T08:09:29;5.72;;;4.10;;
72427;SDS011;60419;48.880;18.036;2022-12-07T08:12:14;6.18;;;4.18;;
72427;SDS011;60419;48.880;18.036;2022-12-07T08:14:59;4.57;;;3.45;;
72427;SDS011;60419;48.880;18.036;2022-12-07T08:17:45;5.55;;;3.83;;
72427;SDS011;60419;48.880;18.036;2022-12-07T08:20:30;5.57;;;3.40;;
72427;SDS011;60419;48.880;18.036;2022-12-07T08:23:17;5.80;;;3.65;;
72427;SDS011;60419;48.880;18.036;2022-12-07T08:26:03;6.43;;;3.80;;
72427;SDS011;60419;48.880;18.036;2022-12-07T08:28:52;5.32;;;3.55;;
72427;SDS011;60419;48.880;18.036;2022-12-07T08:31:38;6.20;;;3.90;;
72427;SDS011;60419;48.880;18.036;2022-12-07T08:34:23;5.15;;;3.42;;
72427;SDS011;60419;48.880;18.036;2022-12-07T08:37:08;5.13;;;3.65;;
72427;SDS011;60419;48.880;18.036;2022-12-07T08:39:54;6.25;;;3.60;;
72427;SDS011;60419;48.880;18.036;2022-12-07T08:42:39;6.35;;;3.53;;
72427;SDS011;60419;48.880;18.036;2022-12-07T08:45:25;6.07;;;3.80;;
72427;SDS011;60419;48.880;18.036;2022-12-07T08:48:10;5.50;;;3.45;;
72427;SDS011;60419;48.880;18.036;2022-12-07T08:50:59;4.97;;;3.53;;
72427;SDS011;60419;48.880;18.036;2022-12-07T08:53:46;5.70;;;3.42;;
72427;SDS011;60419;48.880;18.036;2022-12-07T08:56:32;7.90;;;3.92;;
72427;SDS011;60419;48.880;18.036;2022-12-07T08:59:18;5.57;;;3.60;;
72427;SDS011;60419;48.880;18.036;2022-12-07T09:02:05;6.90;;;3.60;;
72427;SDS011;60419;48.880;18.036;2022-12-07T09:04:51;6.60;;;4.05;;
72427;SDS011;60419;48.880;18.036;2022-12-07T09:07:36;7.05;;;4.32;;
72427;SDS011;60419;48.880;18.036;2022-12-07T09:10:23;6.53;;;4.13;;
72427;SDS011;60419;48.880;18.036;2022-12-07T09:13:08;7.03;;;4.40;;
72427;SDS011;60419;48.880;18.036;2022-12-07T09:15:54;6.45;;;4.25;;
72427;SDS011;60419;48.880;18.036;2022-12-07T09:18:39;6.38;;;4.22;;
72427;SDS011;60419;48.880;18.036;2022-12-07T09:21:25;5.60;;;3.90;;
72427;SDS011;60419;48.880;18.036;2022-12-07T09:24:11;6.40;;;4.40;;
72427;SDS011;60419;48.880;18.036;2022-12-07T09:26:57;6.45;;;4.50;;
72427;SDS011;60419;48.880;18.036;2022-12-07T09:29:43;7.25;;;4.68;;
72427;SDS011;60419;48.880;18.036;2022-12-07T09:32:28;7.70;;;4.68;;
72427;SDS011;60419;48.880;18.036;2022-12-07T09:35:14;6.97;;;4.50;;
72427;SDS011;60419;48.880;18.036;2022-12-07T09:37:59;7.75;;;4.60;;
72427;SDS011;60419;48.880;18.036;2022-12-07T09:40:45;8.13;;;5.18;;
72427;SDS011;60419;48.880;18.036;2022-12-07T09:43:31;9.25;;;5.43;;
72427;SDS011;60419;48.880;18.036;2022-12-07T09:46:17;8.27;;;5.78;;
72427;SDS011;60419;48.880;18.036;2022-12-07T09:49:04;8.57;;;5.38;;
72427;SDS011;60419;48.880;18.036;2022-12-07T09:52:16;8.32;;;5.00;;
72427;SDS011;60419;48.880;18.036;2022-12-07T09:55:47;7.07;;;4.55;;
72427;SDS011;60419;48.880;18.036;2022-12-07T09:58:24;8.27;;;5.20;;
72427;SDS011;60419;48.880;18.036;2022-12-07T10:01:15;7.28;;;4.85;;
72427;SDS011;60419;48.880;18.036;2022-12-07T10:07:00;10.75;;;5.97;;
72427;SDS011;60419;48.880;18.036;2022-12-07T10:09:46;9.80;;;5.80;;
72427;SDS011;60419;48.880;18.036;2022-12-07T10:12:35;8.45;;;5.32;;
72427;SDS011;60419;48.880;18.036;2022-12-07T10:21:26;11.23;;;6.03;;
72427;SDS011;60419;48.880;18.036;2022-12-07T10:26:59;9.00;;;5.75;;
72427;SDS011;60419;48.880;18.036;2022-12-07T10:29:49;8.32;;;6.10;;
72427;SDS011;60419;48.880;18.036;2022-12-07T10:32:36;9.30;;;6.30;;
72427;SDS011;60419;48.880;18.036;2022-12-07T10:38:07;9.40;;;5.80;;
72427;SDS011;60419;48.880;18.036;2022-12-07T10:41:05;10.07;;;6.18;;
72427;SDS011;60419;48.880;18.036;2022-12-07T10:43:53;9.17;;;5.90;;
72427;SDS011;60419;48.880;18.036;2022-12-07T10:46:56;8.07;;;5.40;;
72427;SDS011;60419;48.880;18.036;2022-12-07T10:59:02;9.07;;;6.10;;
72427;SDS011;60419;48.880;18.036;2022-12-07T11:04:59;9.00;;;5.88;;
72427;SDS011;60419;48.880;18.036;2022-12-07T11:22:46;11.40;;;7.47;;
72427;SDS011;60419;48.880;18.036;2022-12-07T11:41:23;11.35;;;7.05;;
72427;SDS011;60419;48.880;18.036;2022-12-07T11:47:45;10.90;;;7.30;;
72427;SDS011;60419;48.880;18.036;2022-12-07T11:50:37;9.98;;;6.28;;
72427;SDS011;60419;48.880;18.036;2022-12-07T11:56:21;10.68;;;6.70;;
72427;SDS011;60419;48.880;18.036;2022-12-07T12:05:28;10.98;;;6.95;;
72427;SDS011;60419;48.880;18.036;2022-12-07T12:08:16;9.88;;;6.30;;
72427;SDS011;60419;48.880;18.036;2022-12-07T12:11:12;10.35;;;6.72;;
72427;SDS011;60419;48.880;18.036;2022-12-07T12:20:43;14.15;;;7.72;;
72427;SDS011;60419;48.880;18.036;2022-12-07T12:26:25;11.63;;;6.88;;
72427;SDS011;60419;48.880;18.036;2022-12-07T12:29:28;12.77;;;7.05;;
72427;SDS011;60419;48.880;18.036;2022-12-07T12:35:20;10.45;;;6.85;;
72427;SDS011;60419;48.880;18.036;2022-12-07T12:41:06;6.88;;;4.53;;
72427;SDS011;60419;48.880;18.036;2022-12-07T12:44:41;6.65;;;4.35;;
72427;SDS011;60419;48.880;18.036;2022-12-07T12:47:59;5.30;;;3.50;;
72427;SDS011;60419;48.880;18.036;2022-12-07T12:50:46;5.53;;;3.47;;
72427;SDS011;60419;48.880;18.036;2022-12-07T12:53:32;6.55;;;3.97;;
72427;SDS011;60419;48.880;18.036;2022-12-07T12:56:27;5.15;;;3.38;;
72427;SDS011;60419;48.880;18.036;2022-12-07T12:59:23;5.10;;;3.15;;
72427;SDS011;60419;48.880;18.036;2022-12-07T13:07:52;5.85;;;3.08;;
72427;SDS011;60419;48.880;18.036;2022-12-07T13:10:42;5.72;;;3.05;;
72427;SDS011;60419;48.880;18.036;2022-12-07T13:13:30;4.63;;;2.90;;
72427;SDS011;60419;48.880;18.036;2022-12-07T13:19:02;4.70;;;2.65;;
72427;SDS011;60419;48.880;18.036;2022-12-07T13:25:29;6.07;;;2.70;;
72427;SDS011;60419;48.880;18.036;2022-12-07T13:28:20;6.43;;;3.08;;
72427;SDS011;60419;48.880;18.036;2022-12-07T13:34:04;4.85;;;2.88;;
72427;SDS011;60419;48.880;18.036;2022-12-07T13:40:21;4.32;;;2.72;;
72427;SDS011;60419;48.880;18.036;2022-12-07T13:43:14;7.13;;;3.00;;
72427;SDS011;60419;48.880;18.036;2022-12-07T13:46:10;4.78;;;2.85;;
72427;SDS011;60419;48.880;18.036;2022-12-07T13:49:02;5.18;;;3.10;;
72427;SDS011;60419;48.880;18.036;2022-12-07T13:51:48;5.50;;;2.30;;
72427;SDS011;60419;48.880;18.036;2022-12-07T13:54:34;4.70;;;2.95;;
72427;SDS011;60419;48.880;18.036;2022-12-07T13:57:29;5.43;;;3.03;;
72427;SDS011;60419;48.880;18.036;2022-12-07T14:00:18;5.55;;;2.90;;
72427;SDS011;60419;48.880;18.036;2022-12-07T14:09:17;8.63;;;3.17;;
72427;SDS011;60419;48.880;18.036;2022-12-07T14:12:05;4.80;;;2.80;;
72427;SDS011;60419;48.880;18.036;2022-12-07T14:14:52;5.43;;;2.92;;
72427;SDS011;60419;48.880;18.036;2022-12-07T14:17:49;5.22;;;2.80;;
72427;SDS011;60419;48.880;18.036;2022-12-07T14:20:40;5.22;;;2.65;;
72427;SDS011;60419;48.880;18.036;2022-12-07T14:23:26;4.68;;;2.42;;
72427;SDS011;60419;48.880;18.036;2022-12-07T14:26:13;6.50;;;3.17;;
72427;SDS011;60419;48.880;18.036;2022-12-07T14:32:19;5.85;;;3.05;;
72427;SDS011;60419;48.880;18.036;2022-12-07T14:35:09;5.60;;;3.22;;
72427;SDS011;60419;48.880;18.036;2022-12-07T14:37:56;7.65;;;3.65;;
72427;SDS011;60419;48.880;18.036;2022-12-07T14:40:42;6.20;;;3.72;;
72427;SDS011;60419;48.880;18.036;2022-12-07T14:43:27;8.27;;;3.53;;
72427;SDS011;60419;48.880;18.036;2022-12-07T14:46:13;6.90;;;3.97;;
72427;SDS011;60419;48.880;18.036;2022-12-07T14:48:58;16.17;;;8.10;;
72427;SDS011;60419;48.880;18.036;2022-12-07T14:51:44;32.67;;;15.63;;
72427;SDS011;60419;48.880;18.036;2022-12-07T14:54:32;43.90;;;18.35;;
72427;SDS011;60419;48.880;18.036;2022-12-07T14:57:18;37.85;;;18.45;;
72427;SDS011;60419;48.880;18.036;2022-12-07T15:00:03;30.77;;;14.50;;
72427;SDS011;60419;48.880;18.036;2022-12-07T15:02:50;19.05;;;8.80;;
72427;SDS011;60419;48.880;18.036;2022-12-07T15:05:36;10.90;;;5.35;;
72427;SDS011;60419;48.880;18.036;2022-12-07T15:08:22;8.57;;;4.45;;
72427;SDS011;60419;48.880;18.036;2022-12-07T15:11:10;6.93;;;3.25;;
72427;SDS011;60419;48.880;18.036;2022-12-07T15:13:58;8.17;;;3.97;;
72427;SDS011;60419;48.880;18.036;2022-12-07T15:16:52;6.47;;;3.58;;
72427;SDS011;60419;48.880;18.036;2022-12-07T15:19:38;7.28;;;3.95;;
72427;SDS011;60419;48.880;18.036;2022-12-07T15:22:23;7.93;;;3.55;;
72427;SDS011;60419;48.880;18.036;2022-12-07T15:25:08;6.10;;;3.40;;
72427;SDS011;60419;48.880;18.036;2022-12-07T15:27:58;8.88;;;3.60;;
72427;SDS011;60419;48.880;18.036;2022-12-07T15:30:44;7.25;;;3.92;;
72427;SDS011;60419;48.880;18.036;2022-12-07T15:33:30;9.02;;;4.22;;
72427;SDS011;60419;48.880;18.036;2022-12-07T15:36:18;8.63;;;4.10;;
72427;SDS011;60419;48.880;18.036;2022-12-07T15:39:06;8.65;;;4.72;;
72427;SDS011;60419;48.880;18.036;2022-12-07T15:41:51;9.65;;;4.20;;
72427;SDS011;60419;48.880;18.036;2022-12-07T15:44:37;8.27;;;4.30;;
72427;SDS011;60419;48.880;18.036;2022-12-07T15:47:41;7.03;;;3.97;;
72427;SDS011;60419;48.880;18.036;2022-12-07T15:50:30;5.90;;;3.55;;
72427;SDS011;60419;48.880;18.036;2022-12-07T15:53:15;9.93;;;5.35;;
72427;SDS011;60419;48.880;18.036;2022-12-07T15:56:00;9.00;;;5.05;;
72427;SDS011;60419;48.880;18.036;2022-12-07T15:58:46;8.18;;;4.60;;
72427;SDS011;60419;48.880;18.036;2022-12-07T16:01:31;10.73;;;5.32;;
72427;SDS011;60419;48.880;18.036;2022-12-07T16:04:17;11.05;;;6.07;;
72427;SDS011;60419;48.880;18.036;2022-12-07T16:07:02;7.88;;;4.80;;
72427;SDS011;60419;48.880;18.036;2022-12-07T16:09:48;9.73;;;5.35;;
72427;SDS011;60419;48.880;18.036;2022-12-07T16:12:34;7.50;;;4.65;;
72427;SDS011;60419;48.880;18.036;2022-12-07T16:15:19;9.75;;;4.97;;
72427;SDS011;60419;48.880;18.036;2022-12-07T16:18:06;8.00;;;5.18;;
72427;SDS011;60419;48.880;18.036;2022-12-07T16:20:51;8.93;;;5.38;;
72427;SDS011;60419;48.880;18.036;2022-12-07T16:23:37;7.90;;;4.85;;
72427;SDS011;60419;48.880;18.036;2022-12-07T16:26:22;9.35;;;5.32;;
72427;SDS011;60419;48.880;18.036;2022-12-07T16:29:10;8.93;;;5.32;;
72427;SDS011;60419;48.880;18.036;2022-12-07T16:31:56;10.45;;;6.15;;
72427;SDS011;60419;48.880;18.036;2022-12-07T16:34:42;10.02;;;5.75;;
72427;SDS011;60419;48.880;18.036;2022-12-07T16:37:27;8.25;;;5.10;;
72427;SDS011;60419;48.880;18.036;2022-12-07T16:40:12;9.05;;;4.95;;
72427;SDS011;60419;48.880;18.036;2022-12-07T16:42:58;8.27;;;4.78;;
72427;SDS011;60419;48.880;18.036;2022-12-07T16:45:44;7.60;;;4.72;;
72427;SDS011;60419;48.880;18.036;2022-12-07T16:48:34;7.45;;;4.40;;
72427;SDS011;60419;48.880;18.036;2022-12-07T16:51:23;8.88;;;4.47;;
72427;SDS011;60419;48.880;18.036;2022-12-07T16:54:09;9.57;;;5.07;;
72427;SDS011;60419;48.880;18.036;2022-12-07T16:56:56;7.78;;;4.00;;
72427;SDS011;60419;48.880;18.036;2022-12-07T16:59:41;6.25;;;4.07;;
72427;SDS011;60419;48.880;18.036;2022-12-07T17:02:27;8.20;;;5.13;;
72427;SDS011;60419;48.880;18.036;2022-12-07T17:05:12;7.10;;;4.40;;
72427;SDS011;60419;48.880;18.036;2022-12-07T17:07:58;10.02;;;5.50;;
72427;SDS011;60419;48.880;18.036;2022-12-07T17:10:44;10.23;;;4.97;;
72427;SDS011;60419;48.880;18.036;2022-12-07T17:13:30;7.18;;;4.47;;
72427;SDS011;60419;48.880;18.036;2022-12-07T17:16:34;9.20;;;5.22;;
72427;SDS011;60419;48.880;18.036;2022-12-07T17:19:20;8.43;;;5.00;;
72427;SDS011;60419;48.880;18.036;2022-12-07T17:22:05;8.13;;;4.95;;
72427;SDS011;60419;48.880;18.036;2022-12-07T17:24:51;8.23;;;4.97;;
72427;SDS011;60419;48.880;18.036;2022-12-07T17:27:36;8.57;;;5.47;;
72427;SDS011;60419;48.880;18.036;2022-12-07T17:30:22;8.50;;;4.85;;
72427;SDS011;60419;48.880;18.036;2022-12-07T17:33:07;9.75;;;5.45;;
72427;SDS011;60419;48.880;18.036;2022-12-07T17:35:52;12.02;;;5.57;;
72427;SDS011;60419;48.880;18.036;2022-12-07T17:38:38;7.57;;;4.55;;
72427;SDS011;60419;48.880;18.036;2022-12-07T17:41:27;7.88;;;5.13;;
72427;SDS011;60419;48.880;18.036;2022-12-07T17:44:32;9.27;;;5.47;;
72427;SDS011;60419;48.880;18.036;2022-12-07T17:47:17;9.25;;;5.85;;
72427;SDS011;60419;48.880;18.036;2022-12-07T17:50:04;8.80;;;5.38;;
72427;SDS011;60419;48.880;18.036;2022-12-07T17:52:50;7.60;;;4.70;;
72427;SDS011;60419;48.880;18.036;2022-12-07T17:55:54;8.23;;;5.07;;
72427;SDS011;60419;48.880;18.036;2022-12-07T17:58:40;8.93;;;5.53;;
72427;SDS011;60419;48.880;18.036;2022-12-07T18:01:25;7.70;;;5.20;;
72427;SDS011;60419;48.880;18.036;2022-12-07T18:04:11;9.77;;;5.85;;
72427;SDS011;60419;48.880;18.036;2022-12-07T18:06:57;11.07;;;6.60;;
72427;SDS011;60419;48.880;18.036;2022-12-07T18:09:42;9.20;;;5.78;;
72427;SDS011;60419;48.880;18.036;2022-12-07T18:12:27;9.60;;;5.70;;
72427;SDS011;60419;48.880;18.036;2022-12-07T18:15:13;10.90;;;6.50;;
72427;SDS011;60419;48.880;18.036;2022-12-07T18:17:58;13.30;;;6.80;;
72427;SDS011;60419;48.880;18.036;2022-12-07T18:20:43;11.55;;;6.45;;
72427;SDS011;60419;48.880;18.036;2022-12-07T18:23:29;10.68;;;5.78;;
72427;SDS011;60419;48.880;18.036;2022-12-07T18:26:16;11.18;;;6.07;;
72427;SDS011;60419;48.880;18.036;2022-12-07T18:29:02;12.70;;;5.97;;
72427;SDS011;60419;48.880;18.036;2022-12-07T18:31:49;9.82;;;5.75;;
72427;SDS011;60419;48.880;18.036;2022-12-07T18:34:36;8.57;;;5.50;;
72427;SDS011;60419;48.880;18.036;2022-12-07T18:37:21;9.50;;;5.47;;
72427;SDS011;60419;48.880;18.036;2022-12-07T18:40:11;13.07;;;5.63;;
72427;SDS011;60419;48.880;18.036;2022-12-07T18:42:57;12.23;;;6.50;;
72427;SDS011;60419;48.880;18.036;2022-12-07T18:45:43;12.98;;;6.82;;
72427;SDS011;60419;48.880;18.036;2022-12-07T18:48:32;10.20;;;6.40;;
72427;SDS011;60419;48.880;18.036;2022-12-07T18:51:18;11.52;;;6.88;;
72427;SDS011;60419;48.880;18.036;2022-12-07T18:54:04;11.82;;;6.53;;
72427;SDS011;60419;48.880;18.036;2022-12-07T18:56:49;10.52;;;6.35;;
72427;SDS011;60419;48.880;18.036;2022-12-07T18:59:35;13.43;;;8.23;;
72427;SDS011;60419;48.880;18.036;2022-12-07T19:02:33;13.65;;;7.95;;